createdAt,value
2024-01-20T00:00:32.244Z,30.80
2024-01-20T00:02:59.800Z,50.40
2024-01-20T00:05:27.416Z,57.30
2024-01-20T00:07:55.679Z,43.70
2024-01-20T00:10:23.295Z,65.40
2024-01-20T00:12:50.973Z,62.20
2024-01-20T00:15:18.540Z,49.60
2024-01-20T00:17:46.882Z,30.30
2024-01-20T00:20:14.821Z,19.90
2024-01-20T00:22:42.679Z,11.90
2024-01-20T00:25:11.590Z,9.10
2024-01-20T00:27:40.099Z,8.40
2024-01-20T00:30:08.276Z,7.70
2024-01-20T00:32:36.040Z,10.90
2024-01-20T00:35:07.706Z,8.90
2024-01-20T00:37:36.418Z,9.00
2024-01-20T00:40:04.396Z,14.80
2024-01-20T00:42:32.032Z,7.70
2024-01-20T00:44:59.679Z,8.50
2024-01-20T00:47:27.272Z,8.90
2024-01-20T00:49:55.100Z,7.40
2024-01-20T00:52:22.871Z,7.40
2024-01-20T00:54:50.423Z,6.50
2024-01-20T00:57:17.988Z,5.00
2024-01-20T00:59:45.647Z,5.40
2024-01-20T01:02:13.365Z,4.70
2024-01-20T01:04:41.131Z,5.40
2024-01-20T01:07:08.844Z,4.60
2024-01-20T01:09:36.389Z,4.70
2024-01-20T01:12:04.060Z,4.10
2024-01-20T01:14:31.711Z,4.00
2024-01-20T01:16:59.310Z,3.60
2024-01-20T01:19:26.954Z,4.20
2024-01-20T01:21:54.481Z,4.50
2024-01-20T01:24:22.202Z,3.00
2024-01-20T01:26:49.925Z,4.50
2024-01-20T01:29:18.031Z,4.70
2024-01-20T01:31:45.911Z,4.40
2024-01-20T01:34:13.749Z,4.50
2024-01-20T01:36:41.474Z,4.90
2024-01-20T01:39:09.363Z,4.70
2024-01-20T01:41:36.790Z,3.60
2024-01-20T01:44:04.376Z,4.20
2024-01-20T01:46:31.921Z,4.00
2024-01-20T01:48:59.585Z,3.40
2024-01-20T01:51:27.551Z,4.70
2024-01-20T01:53:55.240Z,3.00
2024-01-20T01:56:22.965Z,5.40
2024-01-20T01:58:50.637Z,4.20
2024-01-20T02:01:18.366Z,3.70
2024-01-20T02:03:46.230Z,3.80
2024-01-20T02:06:14.090Z,3.40
2024-01-20T02:08:41.783Z,4.10
2024-01-20T02:11:10.381Z,3.50
2024-01-20T02:13:37.939Z,4.60
2024-01-20T02:16:05.899Z,4.30
2024-01-20T02:18:33.394Z,4.70
2024-01-20T02:21:01.250Z,3.90
2024-01-20T02:23:28.995Z,4.30
2024-01-20T02:25:56.640Z,3.70
2024-01-20T02:28:24.192Z,3.80
2024-01-20T02:30:51.892Z,3.80
2024-01-20T02:33:19.630Z,3.10
2024-01-20T02:35:47.278Z,3.50
2024-01-20T02:38:15.255Z,4.90
2024-01-20T02:40:42.812Z,4.20
2024-01-20T02:43:10.470Z,4.50
2024-01-20T02:45:38.049Z,6.50
2024-01-20T02:48:05.722Z,6.30
2024-01-20T02:50:33.553Z,3.80
2024-01-20T02:53:01.208Z,4.80
2024-01-20T02:55:29.290Z,3.60
2024-01-20T02:57:56.956Z,3.50
2024-01-20T03:00:24.657Z,4.30
2024-01-20T03:02:52.233Z,3.90
2024-01-20T03:05:19.847Z,4.70
2024-01-20T03:07:47.502Z,3.70
2024-01-20T03:10:15.055Z,3.80
2024-01-20T03:12:42.745Z,4.40
2024-01-20T03:15:10.320Z,3.40
2024-01-20T03:17:38.439Z,3.30
2024-01-20T03:20:06.209Z,2.80
2024-01-20T03:22:33.777Z,3.70
2024-01-20T03:25:01.496Z,5.90
2024-01-20T03:27:29.116Z,4.70
2024-01-20T03:29:56.766Z,4.50
2024-01-20T03:32:24.460Z,3.90
2024-01-20T03:34:52.093Z,3.70
2024-01-20T03:37:19.742Z,4.40
2024-01-20T03:39:47.313Z,4.10
2024-01-20T03:42:14.889Z,3.90
2024-01-20T03:44:42.419Z,4.50
2024-01-20T03:47:10.505Z,3.40
2024-01-20T03:49:38.200Z,4.10
2024-01-20T03:52:05.915Z,3.90
2024-01-20T03:54:33.483Z,4.00
2024-01-20T03:57:01.477Z,5.50
2024-01-20T03:59:29.101Z,4.40
2024-01-20T04:01:56.972Z,4.90
2024-01-20T04:04:24.739Z,4.70
2024-01-20T04:06:52.491Z,3.30
2024-01-20T04:09:20.076Z,3.80
2024-01-20T04:11:47.818Z,5.30
2024-01-20T04:14:15.581Z,3.80
2024-01-20T04:16:43.347Z,5.00
2024-01-20T04:19:11.026Z,4.90
2024-01-20T04:21:38.976Z,4.30
2024-01-20T04:24:06.753Z,5.80
2024-01-20T04:26:34.398Z,5.00
2024-01-20T04:29:02.082Z,6.30
2024-01-20T04:31:29.726Z,5.90
2024-01-20T04:33:57.481Z,5.20
2024-01-20T04:36:25.182Z,2.50
2024-01-20T04:38:53.239Z,3.50
2024-01-20T04:41:21.012Z,4.30
2024-01-20T04:43:48.744Z,3.30
2024-01-20T04:46:16.521Z,3.70
2024-01-20T04:48:44.369Z,3.00
2024-01-20T04:51:12.179Z,3.50
2024-01-20T04:53:39.883Z,3.20
2024-01-20T04:56:07.573Z,3.50
2024-01-20T04:58:35.011Z,3.00
2024-01-20T05:01:02.634Z,2.80
2024-01-20T05:03:30.515Z,2.90
2024-01-20T05:05:58.356Z,2.50
2024-01-20T05:08:26.266Z,6.40
2024-01-20T05:10:54.130Z,3.90
2024-01-20T05:13:21.688Z,3.80
2024-01-20T05:15:49.458Z,3.70
2024-01-20T05:18:17.379Z,3.10
2024-01-20T05:20:45.085Z,4.10
2024-01-20T05:23:12.868Z,3.50
2024-01-20T05:25:40.833Z,2.70
2024-01-20T05:28:08.381Z,2.90
2024-01-20T05:30:36.104Z,3.00
2024-01-20T05:33:03.960Z,3.20
2024-01-20T05:35:31.875Z,3.90
2024-01-20T05:37:59.633Z,3.00
2024-01-20T05:40:27.200Z,2.90
2024-01-20T05:42:54.755Z,3.80
2024-01-20T05:45:22.687Z,3.20
2024-01-20T05:47:50.475Z,5.00
2024-01-20T05:50:18.140Z,5.30
2024-01-20T05:52:45.847Z,4.00
2024-01-20T05:55:13.580Z,6.00
2024-01-20T05:57:41.232Z,6.80
2024-01-20T06:00:08.867Z,9.30
2024-01-20T06:02:36.553Z,12.70
2024-01-20T06:05:04.467Z,13.50
2024-01-20T06:07:32.496Z,13.40
2024-01-20T06:10:00.275Z,10.00
2024-01-20T06:12:28.290Z,9.80
2024-01-20T06:14:56.241Z,7.00
2024-01-20T06:17:24.071Z,5.10
2024-01-20T06:19:51.668Z,4.30
2024-01-20T06:22:19.285Z,4.70
2024-01-20T06:24:46.844Z,5.40
2024-01-20T06:27:14.529Z,9.30
2024-01-20T06:29:42.069Z,7.10
2024-01-20T06:32:09.921Z,5.30
2024-01-20T06:34:37.534Z,5.20
2024-01-20T06:37:05.252Z,4.80
2024-01-20T06:39:33.015Z,11.40
2024-01-20T06:42:00.846Z,6.80
2024-01-20T06:44:28.540Z,5.20
2024-01-20T06:46:56.223Z,8.90
2024-01-20T06:49:23.860Z,7.10
2024-01-20T06:51:51.618Z,6.00
2024-01-20T06:54:19.410Z,6.00
2024-01-20T06:56:47.045Z,4.80
2024-01-20T06:59:14.702Z,5.50
2024-01-20T07:01:42.368Z,4.80
2024-01-20T07:04:10.057Z,5.90
2024-01-20T07:06:37.928Z,6.30
2024-01-20T07:09:05.707Z,7.40
2024-01-20T07:11:33.319Z,5.60
2024-01-20T07:14:01.004Z,5.60
2024-01-20T07:16:28.641Z,4.70
2024-01-20T07:18:56.553Z,4.70
2024-01-20T07:21:24.400Z,4.20
2024-01-20T07:23:52.130Z,4.90
2024-01-20T07:26:19.707Z,4.70
2024-01-20T07:28:47.657Z,4.00
2024-01-20T07:31:15.232Z,5.50
2024-01-20T07:33:43.055Z,4.60
2024-01-20T07:36:10.877Z,6.70
2024-01-20T07:38:38.301Z,5.40
2024-01-20T07:41:05.865Z,6.30
2024-01-20T07:43:33.433Z,5.20
2024-01-20T07:46:01.190Z,6.20
2024-01-20T07:48:28.940Z,5.10
2024-01-20T07:50:56.967Z,6.10
2024-01-20T07:53:24.579Z,5.30
2024-01-20T07:55:52.255Z,6.00
2024-01-20T07:58:19.909Z,5.50
2024-01-20T08:00:47.587Z,4.60
2024-01-20T08:03:15.373Z,4.80
2024-01-20T08:05:43.014Z,6.80
2024-01-20T08:08:10.553Z,6.20
2024-01-20T08:10:38.118Z,7.60
2024-01-20T08:13:06.088Z,7.40
2024-01-20T08:15:33.695Z,5.00
2024-01-20T08:18:01.571Z,7.40
2024-01-20T08:20:29.297Z,6.50
2024-01-20T08:22:57.025Z,6.70
2024-01-20T08:25:24.587Z,7.80
2024-01-20T08:27:52.367Z,6.70
2024-01-20T08:30:20.158Z,7.60
2024-01-20T08:32:48.052Z,9.60
2024-01-20T08:35:16.045Z,6.90
2024-01-20T08:37:43.603Z,7.00
2024-01-20T08:40:11.266Z,8.10
2024-01-20T08:42:38.938Z,7.70
2024-01-20T08:45:06.670Z,10.20
2024-01-20T08:47:34.357Z,7.70
2024-01-20T08:50:01.959Z,8.70
2024-01-20T08:52:29.572Z,9.20
2024-01-20T08:54:57.141Z,7.50
2024-01-20T08:57:24.823Z,7.30
2024-01-20T08:59:52.552Z,8.00
2024-01-20T09:02:20.319Z,7.30
2024-01-20T09:04:47.880Z,6.30
2024-01-20T09:07:15.635Z,14.30
2024-01-20T09:09:43.233Z,13.40
2024-01-20T09:12:10.906Z,11.40
2024-01-20T09:14:38.945Z,7.70
2024-01-20T09:17:06.709Z,7.30
2024-01-20T09:19:34.322Z,9.70
2024-01-20T09:22:02.114Z,7.40
2024-01-20T09:24:29.715Z,7.80
2024-01-20T09:26:57.366Z,8.00
2024-01-20T09:29:25.192Z,7.20
2024-01-20T09:31:52.738Z,8.10
2024-01-20T09:34:20.493Z,6.30
2024-01-20T09:36:49.114Z,5.80
2024-01-20T09:39:16.686Z,6.90
2024-01-20T09:41:44.510Z,5.90
2024-01-20T09:44:12.069Z,7.80
2024-01-20T09:46:39.735Z,7.40
2024-01-20T09:49:07.378Z,6.20
2024-01-20T09:51:35.492Z,5.70
2024-01-20T09:54:03.802Z,5.90
2024-01-20T09:56:31.700Z,8.00
2024-01-20T09:58:59.531Z,7.10
2024-01-20T10:01:27.306Z,6.70
2024-01-20T10:03:55.145Z,8.40
2024-01-20T10:06:22.794Z,10.90
2024-01-20T10:08:50.623Z,7.70
2024-01-20T10:11:18.488Z,9.30
2024-01-20T10:13:46.214Z,6.20
2024-01-20T10:16:14.209Z,7.50
2024-01-20T10:18:41.625Z,14.90
2024-01-20T10:21:09.346Z,17.40
2024-01-20T10:23:36.996Z,13.90
2024-01-20T10:26:04.550Z,9.50
2024-01-20T10:28:32.118Z,13.10
2024-01-20T10:30:59.777Z,15.30
2024-01-20T10:33:27.397Z,11.80
2024-01-20T10:35:55.208Z,10.90
2024-01-20T10:38:22.867Z,9.30
2024-01-20T10:40:50.532Z,11.70
2024-01-20T10:43:18.345Z,7.60
2024-01-20T10:45:46.170Z,11.00
2024-01-20T10:48:14.055Z,8.10
2024-01-20T10:50:41.896Z,6.80
2024-01-20T10:53:09.563Z,8.30
2024-01-20T10:55:37.242Z,7.80
2024-01-20T10:58:04.796Z,5.80
2024-01-20T11:00:32.811Z,7.40
2024-01-20T11:03:00.536Z,5.40
2024-01-20T11:05:28.401Z,6.00
2024-01-20T11:07:55.950Z,9.90
2024-01-20T11:10:23.610Z,30.10
2024-01-20T11:12:51.269Z,22.20
2024-01-20T11:15:19.187Z,18.20
2024-01-20T11:17:46.904Z,10.70
2024-01-20T11:20:14.699Z,11.30
2024-01-20T11:22:42.532Z,10.20
2024-01-20T11:25:10.092Z,6.80
2024-01-20T11:27:37.769Z,7.20
2024-01-20T11:30:05.449Z,8.00
2024-01-20T11:32:33.135Z,5.60
2024-01-20T11:35:00.843Z,10.20
2024-01-20T11:37:28.602Z,12.60
2024-01-20T11:39:56.168Z,12.60
2024-01-20T11:42:24.082Z,12.50
2024-01-20T11:44:51.684Z,8.10
2024-01-20T11:47:19.359Z,11.20
2024-01-20T11:49:46.982Z,9.90
2024-01-20T11:52:14.772Z,10.90
2024-01-20T11:54:42.486Z,8.30
2024-01-20T11:57:10.144Z,6.90
2024-01-20T11:59:37.752Z,14.20
2024-01-20T12:02:05.632Z,15.50
2024-01-20T12:04:33.197Z,11.80
2024-01-20T12:07:01.067Z,8.30
2024-01-20T12:09:28.832Z,12.40
2024-01-20T12:11:56.375Z,16.60
2024-01-20T12:14:24.028Z,15.40
2024-01-20T12:16:51.586Z,13.00
2024-01-20T12:19:19.255Z,12.10
2024-01-20T12:21:47.015Z,10.40
2024-01-20T12:24:14.992Z,25.20
2024-01-20T12:26:42.541Z,22.70
2024-01-20T12:29:10.408Z,16.60
2024-01-20T12:31:38.066Z,10.40
2024-01-20T12:34:05.843Z,7.90
2024-01-20T12:36:33.745Z,19.50
2024-01-20T12:39:01.647Z,12.00
2024-01-20T12:41:29.330Z,14.20
2024-01-20T12:43:57.088Z,16.50
2024-01-20T12:46:25.065Z,11.10
2024-01-20T12:48:52.858Z,8.50
2024-01-20T12:51:20.737Z,9.30
2024-01-20T12:53:48.460Z,10.30
2024-01-20T12:56:16.214Z,10.80
2024-01-20T12:58:43.685Z,8.80
2024-01-20T13:01:11.250Z,13.40
2024-01-20T13:03:38.815Z,19.90
2024-01-20T13:06:06.644Z,16.90
2024-01-20T13:08:34.643Z,22.50
2024-01-20T13:11:02.282Z,27.00
2024-01-20T13:13:30.279Z,18.10
2024-01-20T13:15:58.105Z,20.30
2024-01-20T13:18:25.961Z,24.40
2024-01-20T13:20:53.647Z,20.00
2024-01-20T13:23:21.310Z,16.30
2024-01-20T13:25:48.958Z,18.30
2024-01-20T13:28:16.626Z,19.70
2024-01-20T13:30:44.312Z,11.70
2024-01-20T13:33:12.528Z,11.90
2024-01-20T13:35:40.216Z,14.20
2024-01-20T13:38:07.988Z,11.40
2024-01-20T13:40:35.651Z,12.50
2024-01-20T13:43:03.508Z,8.90
2024-01-20T13:45:31.198Z,8.20
2024-01-20T13:47:58.983Z,11.70
2024-01-20T13:50:26.619Z,13.30
2024-01-20T13:52:54.500Z,10.10
2024-01-20T13:55:22.131Z,11.80
2024-01-20T13:57:49.913Z,8.10
2024-01-20T14:00:17.521Z,8.90
2024-01-20T14:02:45.347Z,17.00
2024-01-20T14:05:12.996Z,21.70
2024-01-20T14:07:40.733Z,19.50
2024-01-20T14:10:08.558Z,27.80
2024-01-20T14:12:36.383Z,15.40
2024-01-20T14:15:04.275Z,13.60
2024-01-20T14:17:31.922Z,11.20
2024-01-20T14:19:59.600Z,17.50
2024-01-20T14:22:27.325Z,13.20
2024-01-20T14:24:54.901Z,12.80
2024-01-20T14:27:22.467Z,16.00
2024-01-20T14:29:50.119Z,17.50
2024-01-20T14:32:17.770Z,19.80
2024-01-20T14:34:45.386Z,26.80
2024-01-20T14:37:13.595Z,23.10
2024-01-20T14:39:41.354Z,23.20
2024-01-20T14:42:09.179Z,18.30
2024-01-20T14:44:36.882Z,17.80
2024-01-20T14:47:04.439Z,19.10
2024-01-20T14:49:32.206Z,24.70
2024-01-20T14:51:59.880Z,22.10
2024-01-20T14:54:27.807Z,22.10
2024-01-20T14:56:55.601Z,21.80
2024-01-20T14:59:23.464Z,30.20
2024-01-20T15:01:51.129Z,45.10
2024-01-20T15:04:19.054Z,42.20
2024-01-20T15:06:46.876Z,34.40
2024-01-20T15:09:14.771Z,59.50
2024-01-20T15:11:42.698Z,49.70
2024-01-20T15:14:10.257Z,59.40
2024-01-20T15:16:38.320Z,60.10
2024-01-20T15:19:06.105Z,57.00
2024-01-20T15:21:33.795Z,75.00
2024-01-20T15:24:01.666Z,50.70
2024-01-20T15:26:29.276Z,44.60
2024-01-20T15:28:56.943Z,29.40
2024-01-20T15:31:24.492Z,29.10
2024-01-20T15:33:52.300Z,27.30
2024-01-20T15:36:20.137Z,30.30
2024-01-20T15:38:47.932Z,39.70
2024-01-20T15:41:15.446Z,22.70
2024-01-20T15:43:43.205Z,24.20
2024-01-20T15:46:11.488Z,21.90
2024-01-20T15:48:39.009Z,31.70
2024-01-20T15:51:06.651Z,26.90
2024-01-20T15:53:34.262Z,22.70
2024-01-20T15:56:02.134Z,22.90
2024-01-20T15:58:29.983Z,21.50
2024-01-20T16:00:57.709Z,27.40
2024-01-20T16:03:25.478Z,17.70
2024-01-20T16:05:53.298Z,20.90
2024-01-20T16:08:21.041Z,13.90
2024-01-20T16:10:48.715Z,18.70
2024-01-20T16:13:16.586Z,23.10
2024-01-20T16:15:44.286Z,28.80
2024-01-20T16:18:12.179Z,21.80
2024-01-20T16:20:40.279Z,27.90
2024-01-20T16:23:08.029Z,19.90
2024-01-20T16:25:35.698Z,19.70
2024-01-20T16:28:03.248Z,16.70
2024-01-20T16:30:30.855Z,16.10
2024-01-20T16:32:58.521Z,14.20
2024-01-20T16:35:26.454Z,13.40
2024-01-20T16:37:54.004Z,11.40
2024-01-20T16:40:21.564Z,7.10
2024-01-20T16:42:49.320Z,7.50
2024-01-20T16:45:17.105Z,9.90
2024-01-20T16:47:44.899Z,8.50
2024-01-20T16:50:13.271Z,10.20
2024-01-20T16:52:40.890Z,8.20
2024-01-20T16:55:14.778Z,5.30
2024-01-20T16:57:44.134Z,5.80
2024-01-20T17:00:12.190Z,6.60
2024-01-20T17:02:39.831Z,15.10
2024-01-20T17:05:07.441Z,14.60
2024-01-20T17:07:35.248Z,15.70
2024-01-20T17:10:02.911Z,17.70
2024-01-20T17:12:30.507Z,15.90
2024-01-20T17:14:58.247Z,19.80
2024-01-20T17:17:25.939Z,20.50
2024-01-20T17:19:53.717Z,15.60
2024-01-20T17:22:22.243Z,17.20
2024-01-20T17:24:49.903Z,13.50
2024-01-20T17:27:17.611Z,17.30
2024-01-20T17:29:45.236Z,14.30
2024-01-20T17:32:12.894Z,10.90
2024-01-20T17:34:40.567Z,14.00
2024-01-20T17:37:08.234Z,15.00
2024-01-20T17:39:35.940Z,14.20
2024-01-20T17:42:03.992Z,15.00
2024-01-20T17:44:31.640Z,11.40
2024-01-20T17:46:59.260Z,12.80
2024-01-20T17:49:27.125Z,12.30
2024-01-20T17:51:55.215Z,14.20
2024-01-20T17:54:24.499Z,14.00
2024-01-20T17:56:54.130Z,10.80
2024-01-20T17:59:21.774Z,8.40
2024-01-20T18:01:49.812Z,12.20
2024-01-20T18:04:17.697Z,10.60
2024-01-20T18:06:45.478Z,14.30
2024-01-20T18:09:13.137Z,13.10
2024-01-20T18:11:40.693Z,16.50
2024-01-20T18:14:08.243Z,14.40
2024-01-20T18:16:35.897Z,12.70
2024-01-20T18:19:03.528Z,13.50
2024-01-20T18:21:31.130Z,9.00
2024-01-20T18:23:58.981Z,8.40
2024-01-20T18:26:26.541Z,8.60
2024-01-20T18:28:54.140Z,9.80
2024-01-20T18:31:21.761Z,9.40
2024-01-20T18:33:49.477Z,9.20
2024-01-20T18:36:17.339Z,12.90
2024-01-20T18:38:44.859Z,9.90
2024-01-20T18:41:12.413Z,10.80
2024-01-20T18:43:40.078Z,11.40
2024-01-20T18:46:08.046Z,12.90
2024-01-20T18:48:35.794Z,11.60
2024-01-20T18:51:03.725Z,15.80
2024-01-20T18:53:31.429Z,14.20
2024-01-20T18:55:59.104Z,13.70
2024-01-20T18:58:26.649Z,14.10
2024-01-20T19:00:54.364Z,15.00
2024-01-20T19:03:22.100Z,15.20
2024-01-20T19:05:49.975Z,21.70
2024-01-20T19:08:17.497Z,24.80
2024-01-20T19:10:45.059Z,24.00
2024-01-20T19:13:13.235Z,19.50
2024-01-20T19:15:40.861Z,23.30
2024-01-20T19:18:08.818Z,16.80
2024-01-20T19:20:36.631Z,16.20
2024-01-20T19:23:04.193Z,15.00
2024-01-20T19:25:31.895Z,11.80
2024-01-20T19:27:59.516Z,11.70
2024-01-20T19:30:27.494Z,16.60
2024-01-20T19:32:55.204Z,24.00
2024-01-20T19:35:22.899Z,18.20
2024-01-20T19:37:50.563Z,17.70
2024-01-20T19:40:18.119Z,16.20
2024-01-20T19:42:45.818Z,17.80
2024-01-20T19:45:13.570Z,18.10
2024-01-20T19:47:41.210Z,14.50
2024-01-20T19:50:10.464Z,15.50
2024-01-20T19:52:39.289Z,21.80
2024-01-20T19:55:06.862Z,26.30
2024-01-20T19:57:34.715Z,18.30
2024-01-20T20:00:02.417Z,16.70
2024-01-20T20:02:30.046Z,14.90
2024-01-20T20:04:57.745Z,15.60
2024-01-20T20:07:25.366Z,14.40
2024-01-20T20:09:53.099Z,13.10
2024-01-20T20:12:20.790Z,14.60
2024-01-20T20:14:48.351Z,13.10
2024-01-20T20:17:15.911Z,15.40
2024-01-20T20:19:43.638Z,13.20
2024-01-20T20:22:11.453Z,12.70
2024-01-20T20:24:39.231Z,13.20
2024-01-20T20:27:06.984Z,11.10
2024-01-20T20:29:34.983Z,15.70
2024-01-20T20:32:02.607Z,15.50
2024-01-20T20:34:30.380Z,17.10
2024-01-20T20:36:58.172Z,15.00
2024-01-20T20:39:26.062Z,16.60
2024-01-20T20:41:53.743Z,12.50
2024-01-20T20:44:21.413Z,14.90
2024-01-20T20:46:48.992Z,14.00
2024-01-20T20:49:17.021Z,15.40
2024-01-20T20:51:44.751Z,15.30
2024-01-20T20:54:12.475Z,13.50
2024-01-20T20:56:40.221Z,10.80
2024-01-20T20:59:07.794Z,14.50
2024-01-20T21:01:35.389Z,14.30
2024-01-20T21:04:07.017Z,12.30
2024-01-20T21:06:35.511Z,15.10
2024-01-20T21:09:03.474Z,11.50
2024-01-20T21:11:31.004Z,14.30
2024-01-20T21:13:58.567Z,13.30
2024-01-20T21:16:26.126Z,11.10
2024-01-20T21:18:53.865Z,11.60
2024-01-20T21:21:21.578Z,12.30
2024-01-20T21:23:49.624Z,11.60
2024-01-20T21:26:17.169Z,15.70
2024-01-20T21:28:44.524Z,12.70
2024-01-20T21:31:12.110Z,11.80
2024-01-20T21:33:42.046Z,9.70
2024-01-20T21:36:10.911Z,8.20
2024-01-20T21:38:38.465Z,9.30
2024-01-20T21:41:06.105Z,7.10
2024-01-20T21:43:33.567Z,8.50
2024-01-20T21:46:01.133Z,8.60
2024-01-20T21:48:28.826Z,8.90
2024-01-20T21:50:58.110Z,9.60
2024-01-20T21:53:26.059Z,9.70
2024-01-20T21:55:54.020Z,9.10
2024-01-20T21:58:21.582Z,10.30
2024-01-20T22:00:49.318Z,8.90
2024-01-20T22:03:17.074Z,9.70
2024-01-20T22:05:44.703Z,9.60
2024-01-20T22:08:12.227Z,8.80
2024-01-20T22:10:39.887Z,11.90
2024-01-20T22:13:07.465Z,9.70
2024-01-20T22:15:35.264Z,11.50
2024-01-20T22:18:03.356Z,10.90
2024-01-20T22:20:31.149Z,9.90
2024-01-20T22:22:58.826Z,8.70
2024-01-20T22:25:26.467Z,11.40
2024-01-20T22:27:54.103Z,9.40
2024-01-20T22:30:22.034Z,13.10
2024-01-20T22:32:49.672Z,11.20
2024-01-20T22:35:17.312Z,11.00
2024-01-20T22:37:44.977Z,10.20
2024-01-20T22:40:12.632Z,13.10
2024-01-20T22:42:40.253Z,10.50
2024-01-20T22:45:07.860Z,11.30
2024-01-20T22:47:35.532Z,8.80
2024-01-20T22:50:03.103Z,10.50
2024-01-20T22:52:30.940Z,9.50
2024-01-20T22:54:58.593Z,10.30
2024-01-20T22:57:26.707Z,8.70
2024-01-20T22:59:54.226Z,9.20
2024-01-20T23:02:21.797Z,8.40
2024-01-20T23:04:51.114Z,10.40
2024-01-20T23:07:20.485Z,8.10
2024-01-20T23:09:48.471Z,9.50
2024-01-20T23:12:17.377Z,11.40
2024-01-20T23:14:46.451Z,9.70
2024-01-20T23:17:14.104Z,8.20
2024-01-20T23:19:41.780Z,11.30
2024-01-20T23:22:09.529Z,11.10
2024-01-20T23:24:37.214Z,12.00
2024-01-20T23:27:04.843Z,12.30
2024-01-20T23:29:32.422Z,12.00
2024-01-20T23:32:00.077Z,11.00
2024-01-20T23:34:27.723Z,10.60
2024-01-20T23:36:55.496Z,11.00
2024-01-20T23:39:23.372Z,9.80
2024-01-20T23:41:50.910Z,11.70
2024-01-20T23:44:18.483Z,19.70
2024-01-20T23:46:46.037Z,18.80
2024-01-20T23:49:13.701Z,20.90
2024-01-20T23:51:41.502Z,19.80
2024-01-20T23:54:09.271Z,17.80
2024-01-20T23:56:36.891Z,15.00
2024-01-20T23:59:04.544Z,16.80
